Time;durP1;ratioP1;P1;durP2;ratioP2;P2;SDS_P1;SDS_P2;PMS_P1;PMS_P2;Temp;Humidity;BMP_temperature;BMP_pressure;BME280_temperature;BME280_humidity;BME280_pressure;Samples;Min_cycle;Max_cycle;Signal;HPM_P1;HPM_P2
2023/10/02 00:01:10;;;;;;;1999.90;999.90;;;;;;;;;;5040594;28;20045;-87
2023/10/02 00:03:39;;;;;;;1999.90;999.90;;;;;;;;;;5059020;28;20052;-87
2023/10/02 00:06:06;;;;;;;1999.90;999.90;;;;;;;;;;5063698;28;20560;-88
2023/10/02 00:08:42;;;;;;;1999.90;999.90;;;;;;;;;;5063630;28;20074;-87
2023/10/02 00:11:39;;;;;;;1999.90;999.90;;;;;;;;;;5059927;28;20566;-88
2023/10/02 00:14:19;;;;;;;1999.90;999.90;;;;;;;;;;5053009;28;20060;-88
2023/10/02 00:16:59;;;;;;;1999.90;999.90;;;;;;;;;;5070591;28;20049;-87
2023/10/02 00:19:30;;;;;;;1999.90;999.90;;;;;;;;;;5069685;28;20056;-87
2023/10/02 00:22:03;;;;;;;1999.90;999.90;;;;;;;;;;5017963;28;20045;-88
2023/10/02 00:24:32;;;;;;;1999.90;999.90;;;;;;;;;;5051764;28;20061;-87
2023/10/02 00:26:59;;;;;;;1999.90;999.90;;;;;;;;;;5069334;28;20077;-87
2023/10/02 00:29:26;;;;;;;1999.90;999.90;;;;;;;;;;5056752;28;20040;-88
2023/10/02 00:31:54;;;;;;;1999.90;999.90;;;;;;;;;;5049731;28;20124;-88
2023/10/02 00:34:31;;;;;;;1999.90;999.90;;;;;;;;;;5068630;28;20140;-88
2023/10/02 00:37:01;;;;;;;1999.90;999.90;;;;;;;;;;5062777;28;20060;-88
2023/10/02 00:39:31;;;;;;;1999.90;999.90;;;;;;;;;;5061785;28;20102;-88
2023/10/02 00:42:15;;;;;;;1999.90;999.90;;;;;;;;;;5067387;28;20051;-88
2023/10/02 00:44:54;;;;;;;1999.90;999.90;;;;;;;;;;5051466;28;20045;-88
2023/10/02 00:47:45;;;;;;;1999.90;999.90;;;;;;;;;;5060324;28;20526;-88
2023/10/02 00:50:19;;;;;;;1999.90;999.90;;;;;;;;;;5064671;28;20128;-87
2023/10/02 00:52:51;;;;;;;1999.90;999.90;;;;;;;;;;5058862;28;20044;-87
2023/10/02 00:55:20;;;;;;;1999.90;999.90;;;;;;;;;;5057944;28;20139;-87
2023/10/02 00:57:50;;;;;;;1999.90;999.90;;;;;;;;;;5057527;28;20053;-87
2023/10/02 01:00:17;;;;;;;1999.90;999.90;;;;;;;;;;5064416;28;20506;-88
2023/10/02 01:02:51;;;;;;;1999.90;999.90;;;;;;;;;;5078721;23;20139;-88
2023/10/02 01:05:21;;;;;;;1999.90;999.90;;;;;;;;;;5077989;28;20120;-81
2023/10/02 01:07:53;;;;;;;1999.90;999.90;;;;;;;;;;5095001;28;20054;-81
2023/10/02 01:10:20;;;;;;;1999.90;999.90;;;;;;;;;;5093251;28;20070;-80
2023/10/02 01:12:49;;;;;;;1999.90;999.90;;;;;;;;;;5093047;28;20502;-81
2023/10/02 01:15:20;;;;;;;1999.90;999.90;;;;;;;;;;5093443;28;20908;-81
2023/10/02 01:17:51;;;;;;;1999.90;999.90;;;;;;;;;;5091844;28;20127;-81
2023/10/02 01:20:35;;;;;;;1999.90;999.90;;;;;;;;;;5091218;28;20064;-81
2023/10/02 01:23:15;;;;;;;1999.90;999.90;;;;;;;;;;5093228;28;20052;-81
2023/10/02 01:25:44;;;;;;;1999.90;999.90;;;;;;;;;;5093417;28;20055;-81
2023/10/02 01:28:13;;;;;;;1999.90;999.90;;;;;;;;;;5091675;28;20059;-81
2023/10/02 01:30:41;;;;;;;1999.90;999.90;;;;;;;;;;5092377;28;20056;-80
2023/10/02 01:33:11;;;;;;;1999.90;999.90;;;;;;;;;;5094030;28;20044;-80
2023/10/02 01:35:39;;;;;;;1999.90;999.90;;;;;;;;;;5093056;28;20044;-80
2023/10/02 01:38:12;;;;;;;1999.90;999.90;;;;;;;;;;5080595;28;20052;-80
2023/10/02 01:41:01;;;;;;;1999.90;999.90;;;;;;;;;;5071987;28;20047;-80
2023/10/02 01:43:28;;;;;;;1999.90;999.90;;;;;;;;;;5073295;28;20557;-80
2023/10/02 01:45:57;;;;;;;1999.90;999.90;;;;;;;;;;5091988;28;20047;-80
2023/10/02 01:48:37;;;;;;;1999.90;999.90;;;;;;;;;;5098133;28;20048;-80
2023/10/02 01:51:20;;;;;;;1999.90;999.90;;;;;;;;;;5093013;28;20055;-80
2023/10/02 01:53:48;;;;;;;1999.90;999.90;;;;;;;;;;5096192;28;20081;-80
2023/10/02 01:56:17;;;;;;;1999.90;999.90;;;;;;;;;;5075520;28;20079;-80
2023/10/02 01:58:45;;;;;;;1999.90;999.90;;;;;;;;;;5077319;28;20120;-80
2023/10/02 02:01:13;;;;;;;1999.90;999.90;;;;;;;;;;5094993;28;20452;-80
2023/10/02 02:03:41;;;;;;;1999.90;999.90;;;;;;;;;;5077341;28;20439;-80
2023/10/02 02:06:11;;;;;;;1999.90;999.90;;;;;;;;;;5094837;28;20618;-80
2023/10/02 02:08:38;;;;;;;1999.90;999.90;;;;;;;;;;5092029;28;20062;-80
2023/10/02 02:11:16;;;;;;;1999.90;999.90;;;;;;;;;;5077320;28;20467;-80
2023/10/02 02:13:46;;;;;;;1999.90;999.90;;;;;;;;;;5091345;28;20105;-80
2023/10/02 02:16:15;;;;;;;1999.90;999.90;;;;;;;;;;5091896;28;20143;-80
2023/10/02 02:18:42;;;;;;;1999.90;999.90;;;;;;;;;;5078981;28;20075;-80
2023/10/02 02:21:10;;;;;;;1999.90;999.90;;;;;;;;;;5094255;28;20071;-80
2023/10/02 02:23:37;;;;;;;1999.90;999.90;;;;;;;;;;5090942;28;20454;-81
2023/10/02 02:26:04;;;;;;;1999.90;999.90;;;;;;;;;;5091603;28;20055;-81
2023/10/02 02:28:31;;;;;;;1999.90;999.90;;;;;;;;;;5091279;28;20052;-80
2023/10/02 02:31:29;;;;;;;1999.90;999.90;;;;;;;;;;5090688;28;20048;-80
2023/10/02 02:33:55;;;;;;;1999.90;999.90;;;;;;;;;;5075718;28;20048;-81
2023/10/02 02:36:22;;;;;;;1999.90;999.90;;;;;;;;;;5077458;28;20062;-81
2023/10/02 02:39:04;;;;;;;1999.90;999.90;;;;;;;;;;5092338;28;20070;-81
2023/10/02 02:41:31;;;;;;;1999.90;999.90;;;;;;;;;;5080371;28;20044;-81
2023/10/02 02:43:59;;;;;;;1999.90;999.90;;;;;;;;;;5088571;28;20860;-80
2023/10/02 02:46:29;;;;;;;1999.90;999.90;;;;;;;;;;5074307;28;20421;-81
2023/10/02 02:48:57;;;;;;;1999.90;999.90;;;;;;;;;;5089260;28;20070;-81
2023/10/02 02:51:24;;;;;;;1999.90;999.90;;;;;;;;;;5054661;28;20230;-81
2023/10/02 02:53:51;;;;;;;1999.90;999.90;;;;;;;;;;5090845;28;20051;-81
2023/10/02 02:56:22;;;;;;;1999.90;999.90;;;;;;;;;;5093304;28;20100;-81
2023/10/02 02:58:50;;;;;;;1999.90;999.90;;;;;;;;;;5094523;28;20052;-81
2023/10/02 03:01:21;;;;;;;1999.90;999.90;;;;;;;;;;5090738;28;20048;-81
2023/10/02 03:03:49;;;;;;;1999.90;999.90;;;;;;;;;;5092461;28;20079;-81
2023/10/02 03:06:22;;;;;;;1999.90;999.90;;;;;;;;;;5080423;28;20530;-81
2023/10/02 03:08:51;;;;;;;1999.90;999.90;;;;;;;;;;5093311;28;20705;-81
2023/10/02 03:11:19;;;;;;;1999.90;999.90;;;;;;;;;;5095759;28;20071;-81
2023/10/02 03:13:47;;;;;;;1999.90;999.90;;;;;;;;;;5099213;28;20032;-80
2023/10/02 03:16:16;;;;;;;1999.90;999.90;;;;;;;;;;5098661;28;20052;-81
2023/10/02 03:18:44;;;;;;;1999.90;999.90;;;;;;;;;;5098906;28;20127;-81
2023/10/02 03:21:22;;;;;;;1999.90;999.90;;;;;;;;;;5090055;28;20417;-81
2023/10/02 03:23:50;;;;;;;1999.90;999.90;;;;;;;;;;5073357;28;20043;-85
2023/10/02 03:26:37;;;;;;;1999.90;999.90;;;;;;;;;;5092105;28;20075;-85
2023/10/02 03:29:06;;;;;;;1999.90;999.90;;;;;;;;;;5094450;28;20056;-85
2023/10/02 03:31:43;;;;;;;1999.90;999.90;;;;;;;;;;5089519;28;20056;-85
2023/10/02 03:34:28;;;;;;;1999.90;999.90;;;;;;;;;;5089348;28;20088;-85
2023/10/02 03:37:00;;;;;;;1999.90;999.90;;;;;;;;;;5076654;28;20043;-86
2023/10/02 03:42:14;;;;;;;1999.90;999.90;;;;;;;;;;5089855;28;20059;-85
2023/10/02 03:44:42;;;;;;;1999.90;999.90;;;;;;;;;;5075833;28;20098;-86
2023/10/02 03:47:12;;;;;;;1999.90;999.90;;;;;;;;;;5094777;28;20056;-86
2023/10/02 03:49:42;;;;;;;1999.90;999.90;;;;;;;;;;5096611;28;20044;-86
2023/10/02 03:52:13;;;;;;;1999.90;999.90;;;;;;;;;;5079508;28;20109;-86
2023/10/02 03:54:43;;;;;;;1999.90;999.90;;;;;;;;;;5093037;28;20113;-85
2023/10/02 03:57:11;;;;;;;1999.90;999.90;;;;;;;;;;5094722;28;20048;-86
2023/10/02 03:59:52;;;;;;;1999.90;999.90;;;;;;;;;;5096876;28;20192;-85
2023/10/02 04:02:25;;;;;;;1999.90;999.90;;;;;;;;;;5097117;28;20541;-86
2023/10/02 04:04:52;;;;;;;1999.90;999.90;;;;;;;;;;5094903;28;20056;-86
2023/10/02 04:07:21;;;;;;;1999.90;999.90;;;;;;;;;;5096247;28;20429;-86
2023/10/02 04:09:51;;;;;;;1999.90;999.90;;;;;;;;;;5094812;28;20058;-84
2023/10/02 04:12:18;;;;;;;1999.90;999.90;;;;;;;;;;5093501;28;20066;-83
2023/10/02 04:14:48;;;;;;;1999.90;999.90;;;;;;;;;;5095336;28;20117;-85
2023/10/02 04:17:20;;;;;;;1999.90;999.90;;;;;;;;;;5092812;28;20059;-84
2023/10/02 04:19:49;;;;;;;1999.90;999.90;;;;;;;;;;5094043;28;20489;-86
2023/10/02 04:22:22;;;;;;;1999.90;999.90;;;;;;;;;;5082005;28;20489;-85
2023/10/02 04:24:54;;;;;;;1999.90;999.90;;;;;;;;;;5098248;28;20183;-85
2023/10/02 04:27:27;;;;;;;1999.90;999.90;;;;;;;;;;5077450;28;20089;-86
2023/10/02 04:32:48;;;;;;;1999.90;999.90;;;;;;;;;;5090606;28;20080;-85
2023/10/02 04:37:57;;;;;;;1999.90;999.90;;;;;;;;;;5088561;28;20048;-81
2023/10/02 04:40:37;;;;;;;1999.90;999.90;;;;;;;;;;5075109;28;20052;-81
2023/10/02 04:43:19;;;;;;;1999.90;999.90;;;;;;;;;;5091678;28;20055;-82
2023/10/02 04:45:45;;;;;;;1999.90;999.90;;;;;;;;;;5092742;28;20140;-81
2023/10/02 04:48:12;;;;;;;1999.90;999.90;;;;;;;;;;5091979;28;20055;-81
2023/10/02 04:50:45;;;;;;;1999.90;999.90;;;;;;;;;;5092148;28;20489;-81
2023/10/02 04:53:23;;;;;;;1999.90;999.90;;;;;;;;;;5076922;28;20195;-81
2023/10/02 04:58:47;;;;;;;;;;;;;;;;;;5091071;28;20114;-81
2023/10/02 05:03:55;;;;;;;1999.90;999.90;;;;;;;;;;5079589;28;20059;-81
2023/10/02 05:06:44;;;;;;;1999.90;999.90;;;;;;;;;;5070586;28;20055;-81
2023/10/02 05:09:21;;;;;;;1999.90;999.90;;;;;;;;;;5090362;28;20052;-81
2023/10/02 05:11:52;;;;;;;1999.90;999.90;;;;;;;;;;5092286;28;20135;-81
2023/10/02 05:14:27;;;;;;;1999.90;999.90;;;;;;;;;;5092441;28;20123;-82
2023/10/02 05:16:53;;;;;;;1999.90;999.90;;;;;;;;;;5093746;28;20055;-82
2023/10/02 05:19:54;;;;;;;1999.90;999.90;;;;;;;;;;5100567;28;20043;-82
2023/10/02 05:22:07;;;;;;;1999.90;999.90;;;;;;;;;;5077010;28;20800;-82
2023/10/02 05:24:34;;;;;;;1999.90;999.90;;;;;;;;;;5090865;28;20056;-82
2023/10/02 05:27:04;;;;;;;1999.90;999.90;;;;;;;;;;5086697;28;20052;-82
2023/10/02 05:29:40;;;;;;;1999.90;999.90;;;;;;;;;;5097830;28;20044;-82
2023/10/02 05:32:19;;;;;;;1999.90;999.90;;;;;;;;;;5096226;28;20071;-82
2023/10/02 05:34:58;;;;;;;1999.90;999.90;;;;;;;;;;5074017;28;20126;-81
2023/10/02 05:37:30;;;;;;;1999.90;999.90;;;;;;;;;;5092526;28;20052;-81
2023/10/02 05:40:27;;;;;;;1999.90;999.90;;;;;;;;;;5077981;28;20056;-81
2023/10/02 05:42:53;;;;;;;1999.90;999.90;;;;;;;;;;5082865;28;20080;-82
2023/10/02 05:45:37;;;;;;;1999.90;999.90;;;;;;;;;;5106121;28;20118;-82
2023/10/02 05:48:08;;;;;;;1999.90;999.90;;;;;;;;;;5112364;28;20052;-81
2023/10/02 05:50:38;;;;;;;1999.90;999.90;;;;;;;;;;5095791;28;20052;-82
2023/10/02 05:53:06;;;;;;;1999.90;999.90;;;;;;;;;;5098741;28;20135;-82
2023/10/02 05:55:57;;;;;;;1999.90;999.90;;;;;;;;;;5093851;28;20142;-84
2023/10/02 05:58:27;;;;;;;1999.90;999.90;;;;;;;;;;5088576;28;20048;-83
2023/10/02 06:00:57;;;;;;;1999.90;999.90;;;;;;;;;;5073522;28;20048;-84
2023/10/02 06:03:24;;;;;;;1999.90;999.90;;;;;;;;;;5087512;28;20405;-84
2023/10/02 06:08:33;;;;;;;1999.90;999.90;;;;;;;;;;5073752;28;20383;-84
2023/10/02 06:11:25;;;;;;;1999.90;999.90;;;;;;;;;;5079409;28;20139;-84
2023/10/02 06:13:58;;;;;;;1999.90;999.90;;;;;;;;;;5090175;28;20147;-84
2023/10/02 06:16:25;;;;;;;1999.90;999.90;;;;;;;;;;5090361;28;20048;-84
2023/10/02 06:19:00;;;;;;;1999.90;999.90;;;;;;;;;;5040985;28;20083;-86
2023/10/02 06:21:29;;;;;;;1999.90;999.90;;;;;;;;;;5073216;28;20056;-85
2023/10/02 06:23:56;;;;;;;1999.90;999.90;;;;;;;;;;5091477;28;20059;-84
2023/10/02 06:26:26;;;;;;;1999.90;999.90;;;;;;;;;;5093114;28;20105;-84
2023/10/02 06:29:13;;;;;;;1999.90;999.90;;;;;;;;;;5088795;28;20125;-84
2023/10/02 06:31:42;;;;;;;1999.90;999.90;;;;;;;;;;5090010;28;20051;-85
2023/10/02 06:34:11;;;;;;;1999.90;999.90;;;;;;;;;;5055956;28;20044;-84
2023/10/02 06:36:45;;;;;;;1999.90;999.90;;;;;;;;;;5091200;28;20485;-84
2023/10/02 06:39:14;;;;;;;1999.90;999.90;;;;;;;;;;5089115;28;20078;-84
2023/10/02 06:41:41;;;;;;;1999.90;999.90;;;;;;;;;;5090788;28;20054;-85
2023/10/02 06:44:15;;;;;;;1999.90;999.90;;;;;;;;;;5090513;28;20050;-84
2023/10/02 06:46:53;;;;;;;1999.90;999.90;;;;;;;;;;5094915;28;20470;-84
2023/10/02 06:49:21;;;;;;;1999.90;999.90;;;;;;;;;;5091297;28;20047;-84
2023/10/02 06:51:49;;;;;;;1999.90;999.90;;;;;;;;;;5092380;28;20052;-84
2023/10/02 06:54:18;;;;;;;1999.90;999.90;;;;;;;;;;5091804;28;20044;-83
2023/10/02 06:56:45;;;;;;;1999.90;999.90;;;;;;;;;;5091274;28;20058;-83
2023/10/02 06:59:12;;;;;;;1999.90;999.90;;;;;;;;;;5072520;28;20044;-84
2023/10/02 07:02:04;;;;;;;1999.90;999.90;;;;;;;;;;5090116;28;20055;-84
2023/10/02 07:04:30;;;;;;;1999.90;999.90;;;;;;;;;;5090738;28;20540;-83
2023/10/02 07:07:04;;;;;;;1999.90;999.90;;;;;;;;;;5087771;28;20126;-84
2023/10/02 07:09:35;;;;;;;1999.90;999.90;;;;;;;;;;5071019;28;20086;-84
2023/10/02 07:12:14;;;;;;;1999.90;999.90;;;;;;;;;;5089873;28;20051;-83
2023/10/02 07:14:43;;;;;;;1999.90;999.90;;;;;;;;;;5091422;28;20051;-84
2023/10/02 07:17:23;;;;;;;1999.90;999.90;;;;;;;;;;5073371;28;20052;-84
2023/10/02 07:19:52;;;;;;;1999.90;999.90;;;;;;;;;;5100669;28;20078;-84
2023/10/02 07:22:23;;;;;;;1999.90;999.90;;;;;;;;;;5092218;28;20052;-84
2023/10/02 07:24:52;;;;;;;1999.90;999.90;;;;;;;;;;5076999;28;20055;-83
2023/10/02 07:27:25;;;;;;;1999.90;999.90;;;;;;;;;;5091476;28;20051;-84
2023/10/02 07:29:55;;;;;;;1999.90;999.90;;;;;;;;;;5072842;28;20492;-83
2023/10/02 07:32:23;;;;;;;1999.90;999.90;;;;;;;;;;5072497;28;20080;-83
2023/10/02 07:34:53;;;;;;;1999.90;999.90;;;;;;;;;;5088747;28;20048;-83
2023/10/02 07:37:22;;;;;;;1999.90;999.90;;;;;;;;;;5089183;28;20048;-83
2023/10/02 07:39:57;;;;;;;1999.90;999.90;;;;;;;;;;5077260;28;20155;-83
2023/10/02 07:42:29;;;;;;;1999.90;999.90;;;;;;;;;;5060407;28;20164;-83
2023/10/02 07:45:12;;;;;;;1999.90;999.90;;;;;;;;;;5090074;28;20399;-83
2023/10/02 07:47:55;;;;;;;1999.90;999.90;;;;;;;;;;5090393;28;20052;-84
2023/10/02 07:50:33;;;;;;;1999.90;999.90;;;;;;;;;;5090169;28;20047;-83
2023/10/02 07:53:02;;;;;;;1999.90;999.90;;;;;;;;;;5090388;28;20052;-83
2023/10/02 07:55:29;;;;;;;1999.90;999.90;;;;;;;;;;5091944;28;20063;-83
2023/10/02 07:58:00;;;;;;;1999.90;999.90;;;;;;;;;;5091607;28;20055;-84
2023/10/02 08:00:37;;;;;;;1999.90;999.90;;;;;;;;;;5072816;28;20051;-84
2023/10/02 08:03:09;;;;;;;1999.90;999.90;;;;;;;;;;5072161;28;20052;-84
2023/10/02 08:05:38;;;;;;;1999.90;999.90;;;;;;;;;;5053310;28;20102;-84
2023/10/02 08:08:09;;;;;;;1999.90;999.90;;;;;;;;;;5071817;28;20506;-84
2023/10/02 08:10:49;;;;;;;1999.90;999.90;;;;;;;;;;5090422;28;20051;-83
2023/10/02 08:13:16;;;;;;;1999.90;999.90;;;;;;;;;;5092470;28;20048;-84
2023/10/02 08:15:44;;;;;;;1999.90;999.90;;;;;;;;;;5110530;28;20044;-84
2023/10/02 08:18:17;;;;;;;1999.90;999.90;;;;;;;;;;5097852;28;20035;-82
2023/10/02 08:20:45;;;;;;;1999.90;999.90;;;;;;;;;;5083365;28;20056;-83
2023/10/02 08:23:21;;;;;;;1999.90;999.90;;;;;;;;;;5092174;28;20059;-83
2023/10/02 08:26:00;;;;;;;1999.90;999.90;;;;;;;;;;5075272;28;20067;-83
2023/10/02 08:28:29;;;;;;;1999.90;999.90;;;;;;;;;;5092869;28;20052;-83
2023/10/02 08:31:01;;;;;;;1999.90;999.90;;;;;;;;;;5074209;28;20059;-83
2023/10/02 08:33:30;;;;;;;1999.90;999.90;;;;;;;;;;5078716;28;20058;-83
2023/10/02 08:35:59;;;;;;;1999.90;999.90;;;;;;;;;;5096550;28;20424;-84
2023/10/02 08:38:27;;;;;;;1999.90;999.90;;;;;;;;;;5077805;28;20082;-84
2023/10/02 08:40:58;;;;;;;1999.90;999.90;;;;;;;;;;5099467;28;20048;-85
2023/10/02 08:43:29;;;;;;;1999.90;999.90;;;;;;;;;;5076692;28;20044;-85
2023/10/02 08:45:56;;;;;;;1999.90;999.90;;;;;;;;;;5097565;28;20055;-83
2023/10/02 08:48:25;;;;;;;1999.90;999.90;;;;;;;;;;5057363;28;20052;-84
2023/10/02 08:50:57;;;;;;;1999.90;999.90;;;;;;;;;;5075121;28;20068;-84
2023/10/02 08:53:26;;;;;;;1999.90;999.90;;;;;;;;;;5093206;28;20044;-84
2023/10/02 08:56:23;;;;;;;1999.90;999.90;;;;;;;;;;5093602;28;20496;-84
2023/10/02 08:59:15;;;;;;;1999.90;999.90;;;;;;;;;;5076595;28;20060;-85
2023/10/02 09:01:37;;;;;;;1999.90;999.90;;;;;;;;;;5092411;28;20075;-84
2023/10/02 09:17:44;;;;;;;1999.90;999.90;;;;;;;;;;6158530;22;1516323;-86
2023/10/02 09:20:15;;;;;;;1999.90;999.90;;;;;;;;;;6219945;23;20373;-86
2023/10/02 09:22:43;;;;;;;1999.90;999.90;;;;;;;;;;6219725;23;20020;-84
2023/10/02 09:25:13;;;;;;;1999.90;999.90;;;;;;;;;;6220422;23;20067;-86
2023/10/02 09:27:56;;;;;;;1999.90;999.90;;;;;;;;;;6220482;23;20063;-85
2023/10/02 09:30:36;;;;;;;1999.90;999.90;;;;;;;;;;6219578;23;20059;-82
2023/10/02 09:33:11;;;;;;;1999.90;999.90;;;;;;;;;;6219990;23;20482;-85
2023/10/02 09:35:50;;;;;;;;;;;;;;;;;;6219643;23;20027;-84
2023/10/02 09:38:22;;;;;;;1999.90;999.90;;;;;;;;;;6219271;23;19969;-86
2023/10/02 09:40:56;;;;;;;1999.90;999.90;;;;;;;;;;6219815;23;20099;-85
2023/10/02 09:43:24;;;;;;;1999.90;999.90;;;;;;;;;;6220464;23;20103;-84
2023/10/02 09:45:54;;;;;;;1999.90;999.90;;;;;;;;;;6219998;23;20030;-85
2023/10/02 09:48:53;;;;;;;1999.90;999.90;;;;;;;;;;6220257;23;20028;-88
2023/10/02 09:51:25;;;;;;;1999.90;999.90;;;;;;;;;;6197318;23;20745;-85
2023/10/02 09:54:06;;;;;;;1999.90;999.90;;;;;;;;;;6221315;23;20020;-87
2023/10/02 09:56:51;;;;;;;1999.90;999.90;;;;;;;;;;6220326;23;20086;-86
2023/10/02 09:59:21;;;;;;;1999.90;999.90;;;;;;;;;;6219900;23;20026;-88
2023/10/02 10:02:49;;;;;;;1999.90;999.90;;;;;;;;;;6219812;23;20438;-87
2023/10/02 10:11:14;;;;;;;1999.90;999.90;;;;;;;;;;6159016;23;20053;-86
2023/10/02 10:13:46;;;;;;;1999.90;999.90;;;;;;;;;;6136076;23;20029;-88
2023/10/02 10:16:35;;;;;;;1999.90;999.90;;;;;;;;;;6180678;23;20330;-87
2023/10/02 10:19:33;;;;;;;1999.90;999.90;;;;;;;;;;6211768;23;20088;-85
2023/10/02 10:22:10;;;;;;;1999.90;999.90;;;;;;;;;;6213757;23;20468;-87
2023/10/02 10:24:51;;;;;;;1999.90;999.90;;;;;;;;;;6212467;23;20023;-84
2023/10/02 10:27:58;;;;;;;1999.90;999.90;;;;;;;;;;6210541;23;20468;-84
2023/10/02 10:30:33;;;;;;;1999.90;999.90;;;;;;;;;;6211850;23;20024;-85
2023/10/02 10:33:33;;;;;;;1999.90;999.90;;;;;;;;;;6212164;23;20060;-83
2023/10/02 10:36:08;;;;;;;1999.90;999.90;;;;;;;;;;6222831;23;20004;-85
2023/10/02 10:38:41;;;;;;;1999.90;999.90;;;;;;;;;;6237004;23;20036;-83
2023/10/02 10:41:09;;;;;;;1999.90;999.90;;;;;;;;;;6223158;23;20020;-81
2023/10/02 10:43:55;;;;;;;1999.90;999.90;;;;;;;;;;6216684;23;20025;-83
2023/10/02 10:46:27;;;;;;;1999.90;999.90;;;;;;;;;;6210348;23;20031;-82
2023/10/02 10:49:07;;;;;;;1999.90;999.90;;;;;;;;;;6211894;23;20025;-81
2023/10/02 10:51:34;;;;;;;1999.90;999.90;;;;;;;;;;6210382;23;20420;-81
2023/10/02 10:54:25;;;;;;;1999.90;999.90;;;;;;;;;;6211968;23;20024;-81
2023/10/02 10:56:58;;;;;;;1999.90;999.90;;;;;;;;;;6188519;23;20024;-82
2023/10/02 10:59:42;;;;;;;1999.90;999.90;;;;;;;;;;6211816;23;20396;-81
2023/10/02 11:02:13;;;;;;;1999.90;999.90;;;;;;;;;;6210343;23;20056;-80
2023/10/02 11:04:47;;;;;;;1999.90;999.90;;;;;;;;;;6211268;23;20078;-80
2023/10/02 11:07:21;;;;;;;1999.90;999.90;;;;;;;;;;6211992;23;20012;-81
2023/10/02 11:12:37;;;;;;;1999.90;999.90;;;;;;;;;;6211537;23;20056;-81
2023/10/02 11:15:08;;;;;;;1999.90;999.90;;;;;;;;;;6211860;23;20035;-80
2023/10/02 11:17:42;;;;;;;1999.90;999.90;;;;;;;;;;6208873;23;20338;-80
2023/10/02 11:20:10;;;;;;;1999.90;999.90;;;;;;;;;;6212317;23;20047;-84
2023/10/02 11:22:49;;;;;;;1999.90;999.90;;;;;;;;;;6211346;23;20031;-80
2023/10/02 11:25:21;;;;;;;1999.90;999.90;;;;;;;;;;6211707;23;20334;-81
2023/10/02 11:27:57;;;;;;;1999.90;999.90;;;;;;;;;;6211794;23;20431;-81
2023/10/02 11:30:31;;;;;;;1999.90;999.90;;;;;;;;;;6211715;23;20023;-81
2023/10/02 11:33:00;;;;;;;1999.90;999.90;;;;;;;;;;6186685;23;20055;-82
2023/10/02 11:35:28;;;;;;;1999.90;999.90;;;;;;;;;;6210062;23;20083;-80
2023/10/02 11:37:55;;;;;;;1999.90;999.90;;;;;;;;;;6211154;23;20552;-81
2023/10/02 11:40:28;;;;;;;1999.90;999.90;;;;;;;;;;6211919;23;20025;-81
2023/10/02 11:43:00;;;;;;;1999.90;999.90;;;;;;;;;;6211442;23;20024;-81
2023/10/02 11:45:28;;;;;;;1999.90;999.90;;;;;;;;;;6211540;23;20024;-81
2023/10/02 11:47:55;;;;;;;1999.90;999.90;;;;;;;;;;6211267;23;20028;-80
2023/10/02 11:50:21;;;;;;;1999.90;999.90;;;;;;;;;;6210032;23;20082;-80
2023/10/02 11:52:49;;;;;;;1999.90;999.90;;;;;;;;;;6211154;23;20051;-80
2023/10/02 11:55:18;;;;;;;1999.90;999.90;;;;;;;;;;6209963;23;20396;-81
2023/10/02 11:57:51;;;;;;;1999.90;999.90;;;;;;;;;;6211693;23;20017;-80
2023/10/02 12:00:20;;;;;;;1999.90;999.90;;;;;;;;;;6212254;23;20056;-82
2023/10/02 12:02:47;;;;;;;1999.90;999.90;;;;;;;;;;6212154;23;20082;-81
2023/10/02 12:05:14;;;;;;;1999.90;999.90;;;;;;;;;;6211529;23;20027;-79
2023/10/02 12:07:41;;;;;;;1999.90;999.90;;;;;;;;;;6209750;23;20042;-80
2023/10/02 12:10:09;;;;;;;1999.90;999.90;;;;;;;;;;6211064;23;20103;-80
2023/10/02 12:12:36;;;;;;;1999.90;999.90;;;;;;;;;;6211120;23;20484;-81
2023/10/02 12:15:05;;;;;;;1999.90;999.90;;;;;;;;;;6210966;23;20107;-81
2023/10/02 12:17:32;;;;;;;1999.90;999.90;;;;;;;;;;6210861;23;20021;-82
2023/10/02 12:19:59;;;;;;;1999.90;999.90;;;;;;;;;;6209580;23;20365;-82
2023/10/02 12:22:26;;;;;;;1999.90;999.90;;;;;;;;;;6210081;23;20025;-80
2023/10/02 12:24:53;;;;;;;1999.90;999.90;;;;;;;;;;6209485;23;20071;-81
2023/10/02 12:27:21;;;;;;;1999.90;999.90;;;;;;;;;;6211092;23;20096;-81
2023/10/02 12:29:47;;;;;;;1999.90;999.90;;;;;;;;;;6211317;23;20036;-82
2023/10/02 12:32:16;;;;;;;1999.90;999.90;;;;;;;;;;6211100;23;20021;-81
2023/10/02 12:34:43;;;;;;;1999.90;999.90;;;;;;;;;;6211036;23;20028;-81
2023/10/02 12:37:09;;;;;;;1999.90;999.90;;;;;;;;;;6209517;23;20090;-80
2023/10/02 12:39:36;;;;;;;1999.90;999.90;;;;;;;;;;6210485;23;20035;-81
2023/10/02 12:42:03;;;;;;;1999.90;999.90;;;;;;;;;;6211471;23;20025;-81
2023/10/02 12:44:32;;;;;;;1999.90;999.90;;;;;;;;;;6218749;23;20056;-81
2023/10/02 12:46:59;;;;;;;1999.90;999.90;;;;;;;;;;6239750;23;20021;-82
2023/10/02 12:49:27;;;;;;;1999.90;999.90;;;;;;;;;;6221350;23;20027;-81
2023/10/02 12:51:55;;;;;;;1999.90;999.90;;;;;;;;;;6213337;23;20116;-81
2023/10/02 12:54:22;;;;;;;1999.90;999.90;;;;;;;;;;6209859;23;20020;-81
2023/10/02 12:56:49;;;;;;;1999.90;999.90;;;;;;;;;;6209702;23;20020;-81
2023/10/02 12:59:16;;;;;;;1999.90;999.90;;;;;;;;;;6211450;23;20029;-80
2023/10/02 13:01:44;;;;;;;1999.90;999.90;;;;;;;;;;6210815;23;20623;-80
2023/10/02 13:04:12;;;;;;;1999.90;999.90;;;;;;;;;;6209106;23;20039;-81
2023/10/02 13:06:42;;;;;;;1999.90;999.90;;;;;;;;;;6209230;23;20024;-81
2023/10/02 13:09:14;;;;;;;1999.90;999.90;;;;;;;;;;6211548;23;20029;-80
2023/10/02 13:11:41;;;;;;;1999.90;999.90;;;;;;;;;;6209962;23;20365;-81
2023/10/02 13:14:12;;;;;;;1999.90;999.90;;;;;;;;;;6210516;23;20025;-81
2023/10/02 13:16:41;;;;;;;1999.90;999.90;;;;;;;;;;6211075;23;20123;-80
2023/10/02 13:19:09;;;;;;;1999.90;999.90;;;;;;;;;;6211196;23;20107;-80
2023/10/02 13:21:38;;;;;;;1999.90;999.90;;;;;;;;;;6211105;23;20079;-80
2023/10/02 13:24:10;;;;;;;1999.90;999.90;;;;;;;;;;6211733;23;20051;-80
2023/10/02 13:26:39;;;;;;;1999.90;999.90;;;;;;;;;;6209502;23;20325;-80
2023/10/02 13:29:06;;;;;;;1999.90;999.90;;;;;;;;;;6211309;23;20027;-81
2023/10/02 13:31:33;;;;;;;1999.90;999.90;;;;;;;;;;6211033;23;20356;-80
2023/10/02 13:34:00;;;;;;;1999.90;999.90;;;;;;;;;;6210223;23;20074;-81
2023/10/02 13:36:27;;;;;;;1999.90;999.90;;;;;;;;;;6210750;23;20024;-81
2023/10/02 13:38:56;;;;;;;1999.90;999.90;;;;;;;;;;6210711;23;20107;-81
2023/10/02 13:41:25;;;;;;;1999.90;999.90;;;;;;;;;;6210676;23;20028;-81
2023/10/02 13:43:55;;;;;;;1999.90;999.90;;;;;;;;;;6208428;23;20059;-81
2023/10/02 13:46:22;;;;;;;1999.90;999.90;;;;;;;;;;6211051;23;20016;-82
2023/10/02 13:48:51;;;;;;;1999.90;999.90;;;;;;;;;;6210489;23;20047;-82
2023/10/02 13:51:18;;;;;;;1999.90;999.90;;;;;;;;;;6209598;23;20028;-82
2023/10/02 13:53:46;;;;;;;1999.90;999.90;;;;;;;;;;6212689;23;20017;-82
2023/10/02 13:56:16;;;;;;;1999.90;999.90;;;;;;;;;;6214016;23;20126;-81
2023/10/02 13:58:48;;;;;;;1999.90;999.90;;;;;;;;;;6212398;23;20055;-82
2023/10/02 14:01:14;;;;;;;1999.90;999.90;;;;;;;;;;6212625;23;20021;-81
2023/10/02 14:03:45;;;;;;;1999.90;999.90;;;;;;;;;;6210870;23;20021;-81
2023/10/02 14:06:13;;;;;;;1999.90;999.90;;;;;;;;;;6212814;23;20086;-82
2023/10/02 14:08:41;;;;;;;1999.90;999.90;;;;;;;;;;6212659;23;20024;-80
2023/10/02 14:11:09;;;;;;;1999.90;999.90;;;;;;;;;;6211894;23;20034;-82
2023/10/02 14:13:36;;;;;;;1999.90;999.90;;;;;;;;;;6212693;23;20024;-82
2023/10/02 14:16:09;;;;;;;1999.90;999.90;;;;;;;;;;6212200;23;20029;-82
2023/10/02 14:18:37;;;;;;;1999.90;999.90;;;;;;;;;;6212327;23;20037;-82
2023/10/02 14:21:06;;;;;;;1999.90;999.90;;;;;;;;;;6212406;23;20052;-83
2023/10/02 14:23:34;;;;;;;1999.90;999.90;;;;;;;;;;6211322;23;20365;-82
2023/10/02 14:26:02;;;;;;;1999.90;999.90;;;;;;;;;;6212755;23;20028;-81
2023/10/02 14:28:28;;;;;;;1999.90;999.90;;;;;;;;;;6212368;23;20016;-82
2023/10/02 14:30:55;;;;;;;1999.90;999.90;;;;;;;;;;6211624;23;20027;-83
2023/10/02 14:33:24;;;;;;;1999.90;999.90;;;;;;;;;;6210877;23;20027;-82
2023/10/02 14:35:52;;;;;;;1999.90;999.90;;;;;;;;;;6211900;23;20722;-82
2023/10/02 14:38:21;;;;;;;1999.90;999.90;;;;;;;;;;6212218;23;20024;-82
2023/10/02 14:40:47;;;;;;;1999.90;999.90;;;;;;;;;;6210688;23;20401;-82
2023/10/02 14:43:14;;;;;;;1999.90;999.90;;;;;;;;;;6210735;23;20027;-82
2023/10/02 14:45:43;;;;;;;1999.90;999.90;;;;;;;;;;6213558;23;20025;-82
2023/10/02 14:48:12;;;;;;;1999.90;999.90;;;;;;;;;;6212821;23;20035;-82